sensor_id;sensor_type;location;lat;lon;timestamp;P1;durP1;ratioP1;P2;durP2;ratioP2
56911;SDS011;42800;53.928;27.662;2022-11-15T00:00:13;5.95;;;3.75;;
56911;SDS011;42800;53.928;27.662;2022-11-15T00:02:40;4.10;;;3.65;;
56911;SDS011;42800;53.928;27.662;2022-11-15T00:05:06;4.28;;;3.55;;
56911;SDS011;42800;53.928;27.662;2022-11-15T00:07:32;8.63;;;3.55;;
56911;SDS011;42800;53.928;27.662;2022-11-15T00:09:59;11.50;;;3.63;;
56911;SDS011;42800;53.928;27.662;2022-11-15T00:12:26;3.92;;;3.35;;
56911;SDS011;42800;53.928;27.662;2022-11-15T00:14:52;4.32;;;3.58;;
56911;SDS011;42800;53.928;27.662;2022-11-15T00:17:19;8.77;;;3.83;;
56911;SDS011;42800;53.928;27.662;2022-11-15T00:19:46;5.82;;;3.92;;
56911;SDS011;42800;53.928;27.662;2022-11-15T00:22:12;5.65;;;4.18;;
56911;SDS011;42800;53.928;27.662;2022-11-15T00:24:38;10.23;;;4.40;;
56911;SDS011;42800;53.928;27.662;2022-11-15T00:27:04;6.60;;;4.10;;
56911;SDS011;42800;53.928;27.662;2022-11-15T00:29:31;5.22;;;4.18;;
56911;SDS011;42800;53.928;27.662;2022-11-15T00:31:57;4.63;;;3.53;;
56911;SDS011;42800;53.928;27.662;2022-11-15T00:34:24;8.15;;;4.20;;
56911;SDS011;42800;53.928;27.662;2022-11-15T00:36:50;6.53;;;4.38;;
56911;SDS011;42800;53.928;27.662;2022-11-15T00:39:16;7.20;;;4.32;;
56911;SDS011;42800;53.928;27.662;2022-11-15T00:41:43;9.25;;;4.20;;
56911;SDS011;42800;53.928;27.662;2022-11-15T00:44:09;9.65;;;4.57;;
56911;SDS011;42800;53.928;27.662;2022-11-15T00:46:35;8.00;;;4.53;;
56911;SDS011;42800;53.928;27.662;2022-11-15T00:49:02;12.23;;;5.03;;
56911;SDS011;42800;53.928;27.662;2022-11-15T00:51:29;15.45;;;5.20;;
56911;SDS011;42800;53.928;27.662;2022-11-15T00:53:55;15.00;;;5.65;;
56911;SDS011;42800;53.928;27.662;2022-11-15T00:56:21;7.38;;;4.40;;
56911;SDS011;42800;53.928;27.662;2022-11-15T00:58:48;11.25;;;4.65;;
56911;SDS011;42800;53.928;27.662;2022-11-15T01:01:14;6.95;;;4.30;;
56911;SDS011;42800;53.928;27.662;2022-11-15T01:03:40;6.18;;;4.03;;
56911;SDS011;42800;53.928;27.662;2022-11-15T01:06:07;6.25;;;4.22;;
56911;SDS011;42800;53.928;27.662;2022-11-15T01:08:35;7.10;;;5.00;;
56911;SDS011;42800;53.928;27.662;2022-11-15T01:11:02;5.68;;;3.80;;
56911;SDS011;42800;53.928;27.662;2022-11-15T01:13:30;6.35;;;3.72;;
56911;SDS011;42800;53.928;27.662;2022-11-15T01:15:57;6.45;;;4.13;;
56911;SDS011;42800;53.928;27.662;2022-11-15T01:18:24;4.18;;;3.38;;
56911;SDS011;42800;53.928;27.662;2022-11-15T01:20:50;7.10;;;4.45;;
56911;SDS011;42800;53.928;27.662;2022-11-15T01:23:16;10.52;;;4.50;;
56911;SDS011;42800;53.928;27.662;2022-11-15T01:25:43;5.72;;;4.32;;
56911;SDS011;42800;53.928;27.662;2022-11-15T01:28:09;4.05;;;3.50;;
56911;SDS011;42800;53.928;27.662;2022-11-15T01:30:36;4.45;;;3.63;;
56911;SDS011;42800;53.928;27.662;2022-11-15T01:33:02;5.57;;;3.80;;
56911;SDS011;42800;53.928;27.662;2022-11-15T01:35:28;8.05;;;4.03;;
56911;SDS011;42800;53.928;27.662;2022-11-15T01:37:55;6.68;;;4.32;;
56911;SDS011;42800;53.928;27.662;2022-11-15T01:40:21;5.95;;;4.15;;
56911;SDS011;42800;53.928;27.662;2022-11-15T01:42:48;8.32;;;4.60;;
56911;SDS011;42800;53.928;27.662;2022-11-15T01:45:14;8.27;;;4.35;;
56911;SDS011;42800;53.928;27.662;2022-11-15T01:47:42;5.95;;;4.40;;
56911;SDS011;42800;53.928;27.662;2022-11-15T01:50:13;12.80;;;5.63;;
56911;SDS011;42800;53.928;27.662;2022-11-15T01:52:43;11.43;;;5.20;;
56911;SDS011;42800;53.928;27.662;2022-11-15T01:55:09;10.35;;;4.70;;
56911;SDS011;42800;53.928;27.662;2022-11-15T01:57:39;9.27;;;5.43;;
56911;SDS011;42800;53.928;27.662;2022-11-15T02:00:10;7.18;;;5.45;;
56911;SDS011;42800;53.928;27.662;2022-11-15T02:02:37;11.88;;;6.78;;
56911;SDS011;42800;53.928;27.662;2022-11-15T02:05:04;11.07;;;6.43;;
56911;SDS011;42800;53.928;27.662;2022-11-15T02:07:31;18.20;;;7.57;;
56911;SDS011;42800;53.928;27.662;2022-11-15T02:10:01;12.07;;;6.35;;
56911;SDS011;42800;53.928;27.662;2022-11-15T02:12:32;11.88;;;7.07;;
56911;SDS011;42800;53.928;27.662;2022-11-15T02:14:59;14.43;;;8.73;;
56911;SDS011;42800;53.928;27.662;2022-11-15T02:17:33;14.90;;;7.65;;
56911;SDS011;42800;53.928;27.662;2022-11-15T02:20:25;14.30;;;8.32;;
56911;SDS011;42800;53.928;27.662;2022-11-15T02:23:10;15.70;;;8.15;;
56911;SDS011;42800;53.928;27.662;2022-11-15T02:26:05;19.38;;;8.65;;
56911;SDS011;42800;53.928;27.662;2022-11-15T02:28:58;15.15;;;8.30;;
56911;SDS011;42800;53.928;27.662;2022-11-15T02:31:30;15.05;;;7.93;;
56911;SDS011;42800;53.928;27.662;2022-11-15T02:34:08;14.75;;;8.00;;
56911;SDS011;42800;53.928;27.662;2022-11-15T02:36:43;18.52;;;9.15;;
56911;SDS011;42800;53.928;27.662;2022-11-15T02:39:22;18.90;;;9.27;;
56911;SDS011;42800;53.928;27.662;2022-11-15T02:41:57;17.13;;;9.30;;
56911;SDS011;42800;53.928;27.662;2022-11-15T02:44:26;21.23;;;9.38;;
56911;SDS011;42800;53.928;27.662;2022-11-15T02:46:59;21.98;;;9.57;;
56911;SDS011;42800;53.928;27.662;2022-11-15T02:49:38;21.75;;;9.80;;
56911;SDS011;42800;53.928;27.662;2022-11-15T02:52:07;21.17;;;9.55;;
56911;SDS011;42800;53.928;27.662;2022-11-15T02:54:34;20.55;;;9.52;;
56911;SDS011;42800;53.928;27.662;2022-11-15T02:57:01;24.48;;;11.15;;
56911;SDS011;42800;53.928;27.662;2022-11-15T03:02:27;22.10;;;9.80;;
56911;SDS011;42800;53.928;27.662;2022-11-15T03:05:08;14.82;;;7.05;;
56911;SDS011;42800;53.928;27.662;2022-11-15T03:07:45;13.68;;;6.38;;
56911;SDS011;42800;53.928;27.662;2022-11-15T03:10:19;18.25;;;8.40;;
56911;SDS011;42800;53.928;27.662;2022-11-15T03:12:54;17.45;;;8.73;;
56911;SDS011;42800;53.928;27.662;2022-11-15T03:15:24;17.67;;;9.63;;
56911;SDS011;42800;53.928;27.662;2022-11-15T03:17:57;19.02;;;8.82;;
56911;SDS011;42800;53.928;27.662;2022-11-15T03:20:28;15.75;;;7.97;;
56911;SDS011;42800;53.928;27.662;2022-11-15T03:22:57;12.98;;;6.80;;
56911;SDS011;42800;53.928;27.662;2022-11-15T03:25:28;15.80;;;7.03;;
56911;SDS011;42800;53.928;27.662;2022-11-15T03:27:57;13.85;;;6.47;;
56911;SDS011;42800;53.928;27.662;2022-11-15T03:30:27;9.63;;;5.63;;
56911;SDS011;42800;53.928;27.662;2022-11-15T03:32:56;9.57;;;4.80;;
56911;SDS011;42800;53.928;27.662;2022-11-15T03:35:26;8.48;;;3.75;;
56911;SDS011;42800;53.928;27.662;2022-11-15T03:37:57;9.07;;;3.92;;
56911;SDS011;42800;53.928;27.662;2022-11-15T03:40:33;10.70;;;4.55;;
56911;SDS011;42800;53.928;27.662;2022-11-15T03:43:05;5.80;;;3.78;;
56911;SDS011;42800;53.928;27.662;2022-11-15T03:45:38;8.43;;;3.55;;
56911;SDS011;42800;53.928;27.662;2022-11-15T03:48:10;5.90;;;2.83;;
56911;SDS011;42800;53.928;27.662;2022-11-15T03:50:40;6.10;;;3.20;;
56911;SDS011;42800;53.928;27.662;2022-11-15T03:53:07;4.95;;;2.90;;
56911;SDS011;42800;53.928;27.662;2022-11-15T03:55:34;5.45;;;2.90;;
56911;SDS011;42800;53.928;27.662;2022-11-15T03:58:00;10.43;;;3.92;;
56911;SDS011;42800;53.928;27.662;2022-11-15T04:00:27;5.10;;;3.05;;
56911;SDS011;42800;53.928;27.662;2022-11-15T04:02:53;3.85;;;1.98;;
56911;SDS011;42800;53.928;27.662;2022-11-15T04:05:20;6.30;;;2.60;;
56911;SDS011;42800;53.928;27.662;2022-11-15T04:07:50;4.07;;;2.72;;
56911;SDS011;42800;53.928;27.662;2022-11-15T04:10:16;5.95;;;2.78;;
56911;SDS011;42800;53.928;27.662;2022-11-15T04:12:43;6.55;;;2.90;;
56911;SDS011;42800;53.928;27.662;2022-11-15T04:15:13;4.53;;;2.58;;
56911;SDS011;42800;53.928;27.662;2022-11-15T04:17:44;7.95;;;2.92;;
56911;SDS011;42800;53.928;27.662;2022-11-15T04:20:12;6.05;;;2.90;;
56911;SDS011;42800;53.928;27.662;2022-11-15T04:23:01;7.45;;;3.10;;
56911;SDS011;42800;53.928;27.662;2022-11-15T04:25:49;8.55;;;3.20;;
56911;SDS011;42800;53.928;27.662;2022-11-15T04:28:18;5.47;;;2.40;;
56911;SDS011;42800;53.928;27.662;2022-11-15T04:30:44;5.43;;;3.08;;
56911;SDS011;42800;53.928;27.662;2022-11-15T04:33:11;4.72;;;2.72;;
56911;SDS011;42800;53.928;27.662;2022-11-15T04:35:37;4.00;;;2.80;;
56911;SDS011;42800;53.928;27.662;2022-11-15T04:38:04;5.05;;;2.78;;
56911;SDS011;42800;53.928;27.662;2022-11-15T04:40:32;5.28;;;2.63;;
56911;SDS011;42800;53.928;27.662;2022-11-15T04:42:58;3.53;;;1.73;;
56911;SDS011;42800;53.928;27.662;2022-11-15T04:45:24;8.73;;;3.08;;
56911;SDS011;42800;53.928;27.662;2022-11-15T04:47:51;7.75;;;3.65;;
56911;SDS011;42800;53.928;27.662;2022-11-15T04:50:17;11.65;;;5.63;;
56911;SDS011;42800;53.928;27.662;2022-11-15T04:52:49;9.43;;;6.13;;
56911;SDS011;42800;53.928;27.662;2022-11-15T04:55:17;11.15;;;6.30;;
56911;SDS011;42800;53.928;27.662;2022-11-15T04:57:44;14.80;;;6.50;;
56911;SDS011;42800;53.928;27.662;2022-11-15T05:00:14;10.45;;;5.60;;
56911;SDS011;42800;53.928;27.662;2022-11-15T05:02:42;9.05;;;5.95;;
56911;SDS011;42800;53.928;27.662;2022-11-15T05:05:26;11.02;;;5.20;;
56911;SDS011;42800;53.928;27.662;2022-11-15T05:07:52;11.80;;;6.80;;
56911;SDS011;42800;53.928;27.662;2022-11-15T05:10:19;12.05;;;6.00;;
56911;SDS011;42800;53.928;27.662;2022-11-15T05:12:46;11.65;;;6.65;;
56911;SDS011;42800;53.928;27.662;2022-11-15T05:15:12;15.65;;;8.40;;
56911;SDS011;42800;53.928;27.662;2022-11-15T05:17:39;18.38;;;10.63;;
56911;SDS011;42800;53.928;27.662;2022-11-15T05:20:05;17.02;;;8.90;;
56911;SDS011;42800;53.928;27.662;2022-11-15T05:22:32;13.32;;;7.80;;
56911;SDS011;42800;53.928;27.662;2022-11-15T05:24:59;12.80;;;7.85;;
56911;SDS011;42800;53.928;27.662;2022-11-15T05:27:26;13.85;;;6.90;;
56911;SDS011;42800;53.928;27.662;2022-11-15T05:29:52;10.15;;;5.68;;
56911;SDS011;42800;53.928;27.662;2022-11-15T05:32:18;16.15;;;6.07;;
56911;SDS011;42800;53.928;27.662;2022-11-15T05:34:44;9.23;;;4.50;;
56911;SDS011;42800;53.928;27.662;2022-11-15T05:37:12;4.65;;;2.55;;
56911;SDS011;42800;53.928;27.662;2022-11-15T05:39:39;8.20;;;3.78;;
56911;SDS011;42800;53.928;27.662;2022-11-15T05:42:06;6.20;;;3.40;;
56911;SDS011;42800;53.928;27.662;2022-11-15T05:44:36;8.68;;;4.00;;
56911;SDS011;42800;53.928;27.662;2022-11-15T05:47:03;7.43;;;3.45;;
56911;SDS011;42800;53.928;27.662;2022-11-15T05:49:34;9.25;;;3.85;;
56911;SDS011;42800;53.928;27.662;2022-11-15T05:52:04;6.97;;;4.03;;
56911;SDS011;42800;53.928;27.662;2022-11-15T05:54:33;8.55;;;3.53;;
56911;SDS011;42800;53.928;27.662;2022-11-15T05:57:00;15.40;;;4.72;;
56911;SDS011;42800;53.928;27.662;2022-11-15T05:59:28;12.70;;;4.70;;
56911;SDS011;42800;53.928;27.662;2022-11-15T06:01:56;14.07;;;6.50;;
56911;SDS011;42800;53.928;27.662;2022-11-15T06:04:22;15.82;;;6.07;;
56911;SDS011;42800;53.928;27.662;2022-11-15T06:06:49;15.20;;;6.90;;
56911;SDS011;42800;53.928;27.662;2022-11-15T06:09:15;12.15;;;5.88;;
56911;SDS011;42800;53.928;27.662;2022-11-15T06:11:41;20.98;;;6.95;;
56911;SDS011;42800;53.928;27.662;2022-11-15T06:14:08;16.55;;;8.27;;
56911;SDS011;42800;53.928;27.662;2022-11-15T06:16:34;30.42;;;11.15;;
56911;SDS011;42800;53.928;27.662;2022-11-15T06:19:01;24.75;;;11.13;;
56911;SDS011;42800;53.928;27.662;2022-11-15T06:21:27;26.25;;;12.98;;
56911;SDS011;42800;53.928;27.662;2022-11-15T06:23:54;25.85;;;13.25;;
56911;SDS011;42800;53.928;27.662;2022-11-15T06:26:20;22.52;;;9.75;;
56911;SDS011;42800;53.928;27.662;2022-11-15T06:28:47;21.20;;;9.73;;
56911;SDS011;42800;53.928;27.662;2022-11-15T06:31:13;20.23;;;9.07;;
56911;SDS011;42800;53.928;27.662;2022-11-15T06:33:39;18.45;;;10.27;;
56911;SDS011;42800;53.928;27.662;2022-11-15T06:36:08;30.08;;;12.77;;
56911;SDS011;42800;53.928;27.662;2022-11-15T06:38:38;33.55;;;15.13;;
56911;SDS011;42800;53.928;27.662;2022-11-15T06:41:05;30.17;;;13.50;;
56911;SDS011;42800;53.928;27.662;2022-11-15T06:43:33;24.70;;;13.60;;
56911;SDS011;42800;53.928;27.662;2022-11-15T06:46:00;21.90;;;10.07;;
56911;SDS011;42800;53.928;27.662;2022-11-15T06:48:28;22.15;;;9.70;;
56911;SDS011;42800;53.928;27.662;2022-11-15T06:50:55;23.60;;;10.88;;
56911;SDS011;42800;53.928;27.662;2022-11-15T06:53:23;68.25;;;21.80;;
56911;SDS011;42800;53.928;27.662;2022-11-15T06:55:49;35.20;;;14.55;;
56911;SDS011;42800;53.928;27.662;2022-11-15T06:58:16;21.58;;;10.50;;
56911;SDS011;42800;53.928;27.662;2022-11-15T07:00:43;51.33;;;20.23;;
56911;SDS011;42800;53.928;27.662;2022-11-15T07:03:09;40.80;;;13.57;;
56911;SDS011;42800;53.928;27.662;2022-11-15T07:05:36;23.52;;;9.13;;
56911;SDS011;42800;53.928;27.662;2022-11-15T07:08:02;32.17;;;13.60;;
56911;SDS011;42800;53.928;27.662;2022-11-15T07:10:29;27.55;;;12.25;;
56911;SDS011;42800;53.928;27.662;2022-11-15T07:12:56;20.08;;;7.55;;
56911;SDS011;42800;53.928;27.662;2022-11-15T07:15:23;14.35;;;7.57;;
56911;SDS011;42800;53.928;27.662;2022-11-15T07:17:51;27.00;;;11.57;;
56911;SDS011;42800;53.928;27.662;2022-11-15T07:20:17;16.80;;;9.48;;
56911;SDS011;42800;53.928;27.662;2022-11-15T07:22:44;16.88;;;11.23;;
56911;SDS011;42800;53.928;27.662;2022-11-15T07:25:10;21.60;;;11.07;;
56911;SDS011;42800;53.928;27.662;2022-11-15T07:27:38;24.10;;;10.65;;
56911;SDS011;42800;53.928;27.662;2022-11-15T07:30:04;20.27;;;12.07;;
56911;SDS011;42800;53.928;27.662;2022-11-15T07:32:31;19.88;;;9.18;;
56911;SDS011;42800;53.928;27.662;2022-11-15T07:34:58;19.45;;;9.07;;
56911;SDS011;42800;53.928;27.662;2022-11-15T07:37:24;15.50;;;9.30;;
56911;SDS011;42800;53.928;27.662;2022-11-15T07:39:50;17.42;;;8.18;;
56911;SDS011;42800;53.928;27.662;2022-11-15T07:42:16;18.75;;;8.32;;
56911;SDS011;42800;53.928;27.662;2022-11-15T07:45:02;18.30;;;8.25;;
56911;SDS011;42800;53.928;27.662;2022-11-15T07:47:29;19.35;;;7.70;;
56911;SDS011;42800;53.928;27.662;2022-11-15T07:49:55;12.02;;;6.10;;
56911;SDS011;42800;53.928;27.662;2022-11-15T07:52:21;15.65;;;6.35;;
56911;SDS011;42800;53.928;27.662;2022-11-15T07:54:48;18.38;;;7.50;;
56911;SDS011;42800;53.928;27.662;2022-11-15T07:57:14;16.63;;;7.20;;
56911;SDS011;42800;53.928;27.662;2022-11-15T07:59:40;24.17;;;8.63;;
56911;SDS011;42800;53.928;27.662;2022-11-15T08:02:08;9.07;;;5.03;;
56911;SDS011;42800;53.928;27.662;2022-11-15T08:04:35;14.05;;;6.15;;
56911;SDS011;42800;53.928;27.662;2022-11-15T08:07:01;10.20;;;5.28;;
56911;SDS011;42800;53.928;27.662;2022-11-15T08:09:27;12.05;;;5.45;;
56911;SDS011;42800;53.928;27.662;2022-11-15T08:11:54;12.70;;;5.10;;
56911;SDS011;42800;53.928;27.662;2022-11-15T08:14:20;7.45;;;3.97;;
56911;SDS011;42800;53.928;27.662;2022-11-15T08:16:47;13.15;;;4.85;;
56911;SDS011;42800;53.928;27.662;2022-11-15T08:19:14;11.38;;;4.85;;
56911;SDS011;42800;53.928;27.662;2022-11-15T08:21:40;7.95;;;3.88;;
56911;SDS011;42800;53.928;27.662;2022-11-15T08:24:07;9.10;;;4.57;;
56911;SDS011;42800;53.928;27.662;2022-11-15T08:26:35;7.80;;;3.85;;
56911;SDS011;42800;53.928;27.662;2022-11-15T08:29:02;7.20;;;3.95;;
56911;SDS011;42800;53.928;27.662;2022-11-15T08:31:28;6.25;;;4.15;;
56911;SDS011;42800;53.928;27.662;2022-11-15T08:33:54;6.22;;;3.80;;
56911;SDS011;42800;53.928;27.662;2022-11-15T08:36:22;7.32;;;4.10;;
56911;SDS011;42800;53.928;27.662;2022-11-15T08:38:48;9.77;;;4.43;;
56911;SDS011;42800;53.928;27.662;2022-11-15T08:41:16;14.85;;;5.53;;
56911;SDS011;42800;53.928;27.662;2022-11-15T08:43:49;8.88;;;4.75;;
56911;SDS011;42800;53.928;27.662;2022-11-15T08:46:16;7.30;;;4.85;;
56911;SDS011;42800;53.928;27.662;2022-11-15T08:48:43;8.38;;;4.85;;
56911;SDS011;42800;53.928;27.662;2022-11-15T08:51:09;7.78;;;4.63;;
56911;SDS011;42800;53.928;27.662;2022-11-15T08:53:36;8.23;;;5.45;;
56911;SDS011;42800;53.928;27.662;2022-11-15T08:56:03;9.15;;;4.57;;
56911;SDS011;42800;53.928;27.662;2022-11-15T08:58:33;9.98;;;5.18;;
56911;SDS011;42800;53.928;27.662;2022-11-15T09:00:59;13.32;;;6.72;;
56911;SDS011;42800;53.928;27.662;2022-11-15T09:03:25;16.35;;;7.53;;
56911;SDS011;42800;53.928;27.662;2022-11-15T09:05:54;11.77;;;6.13;;
56911;SDS011;42800;53.928;27.662;2022-11-15T09:08:21;9.98;;;5.05;;
56911;SDS011;42800;53.928;27.662;2022-11-15T09:10:48;15.27;;;8.27;;
56911;SDS011;42800;53.928;27.662;2022-11-15T09:13:14;21.65;;;9.90;;
56911;SDS011;42800;53.928;27.662;2022-11-15T09:15:41;32.75;;;15.98;;
56911;SDS011;42800;53.928;27.662;2022-11-15T09:18:07;30.80;;;18.05;;
56911;SDS011;42800;53.928;27.662;2022-11-15T09:20:33;24.23;;;14.77;;
56911;SDS011;42800;53.928;27.662;2022-11-15T09:23:00;26.95;;;16.10;;
56911;SDS011;42800;53.928;27.662;2022-11-15T09:25:26;31.98;;;18.60;;
56911;SDS011;42800;53.928;27.662;2022-11-15T09:27:53;30.92;;;17.42;;
56911;SDS011;42800;53.928;27.662;2022-11-15T09:30:20;26.42;;;13.43;;
56911;SDS011;42800;53.928;27.662;2022-11-15T09:32:46;22.88;;;12.52;;
56911;SDS011;42800;53.928;27.662;2022-11-15T09:35:13;20.77;;;12.85;;
56911;SDS011;42800;53.928;27.662;2022-11-15T09:37:39;34.47;;;17.63;;
56911;SDS011;42800;53.928;27.662;2022-11-15T09:40:06;28.25;;;14.52;;
56911;SDS011;42800;53.928;27.662;2022-11-15T09:42:39;33.67;;;17.30;;
56911;SDS011;42800;53.928;27.662;2022-11-15T09:45:20;28.58;;;15.80;;
56911;SDS011;42800;53.928;27.662;2022-11-15T09:47:56;29.63;;;13.50;;
56911;SDS011;42800;53.928;27.662;2022-11-15T09:50:35;29.50;;;14.10;;
56911;SDS011;42800;53.928;27.662;2022-11-15T09:53:04;29.00;;;13.85;;
56911;SDS011;42800;53.928;27.662;2022-11-15T09:55:32;28.10;;;14.30;;
56911;SDS011;42800;53.928;27.662;2022-11-15T09:58:07;26.10;;;14.68;;
56911;SDS011;42800;53.928;27.662;2022-11-15T10:00:42;37.35;;;17.13;;
56911;SDS011;42800;53.928;27.662;2022-11-15T10:03:14;32.25;;;17.60;;
56911;SDS011;42800;53.928;27.662;2022-11-15T10:05:42;40.40;;;19.23;;
56911;SDS011;42800;53.928;27.662;2022-11-15T10:08:19;33.47;;;18.95;;
56911;SDS011;42800;53.928;27.662;2022-11-15T10:10:53;24.60;;;14.32;;
56911;SDS011;42800;53.928;27.662;2022-11-15T10:13:22;24.20;;;12.98;;
56911;SDS011;42800;53.928;27.662;2022-11-15T10:15:51;31.77;;;16.20;;
56911;SDS011;42800;53.928;27.662;2022-11-15T10:18:23;26.83;;;13.63;;
56911;SDS011;42800;53.928;27.662;2022-11-15T10:20:57;24.92;;;13.50;;
56911;SDS011;42800;53.928;27.662;2022-11-15T10:23:25;26.75;;;14.80;;
56911;SDS011;42800;53.928;27.662;2022-11-15T10:25:54;18.95;;;12.38;;
56911;SDS011;42800;53.928;27.662;2022-11-15T10:28:25;25.48;;;11.95;;
56911;SDS011;42800;53.928;27.662;2022-11-15T10:30:54;20.02;;;10.70;;
56911;SDS011;42800;53.928;27.662;2022-11-15T10:33:24;20.58;;;10.93;;
56911;SDS011;42800;53.928;27.662;2022-11-15T10:38:49;21.92;;;11.77;;
56911;SDS011;42800;53.928;27.662;2022-11-15T10:41:19;19.15;;;10.18;;
56911;SDS011;42800;53.928;27.662;2022-11-15T10:44:00;15.65;;;9.77;;
56911;SDS011;42800;53.928;27.662;2022-11-15T10:46:34;15.55;;;9.73;;
56911;SDS011;42800;53.928;27.662;2022-11-15T10:49:11;16.23;;;9.95;;
56911;SDS011;42800;53.928;27.662;2022-11-15T10:51:41;15.27;;;9.68;;
56911;SDS011;42800;53.928;27.662;2022-11-15T10:54:09;18.40;;;10.88;;
56911;SDS011;42800;53.928;27.662;2022-11-15T10:56:37;16.58;;;9.15;;
56911;SDS011;42800;53.928;27.662;2022-11-15T10:59:09;14.55;;;8.30;;
56911;SDS011;42800;53.928;27.662;2022-11-15T11:01:46;18.02;;;9.77;;
56911;SDS011;42800;53.928;27.662;2022-11-15T11:04:12;15.13;;;8.30;;
56911;SDS011;42800;53.928;27.662;2022-11-15T11:06:45;19.92;;;9.50;;
56911;SDS011;42800;53.928;27.662;2022-11-15T11:09:20;20.52;;;8.80;;
56911;SDS011;42800;53.928;27.662;2022-11-15T11:11:53;12.90;;;7.88;;
56911;SDS011;42800;53.928;27.662;2022-11-15T11:14:20;11.60;;;6.97;;
56911;SDS011;42800;53.928;27.662;2022-11-15T11:16:49;12.30;;;7.57;;
56911;SDS011;42800;53.928;27.662;2022-11-15T11:22:22;17.70;;;8.25;;
56911;SDS011;42800;53.928;27.662;2022-11-15T11:25:10;12.32;;;7.60;;
56911;SDS011;42800;53.928;27.662;2022-11-15T11:27:43;16.20;;;7.72;;
56911;SDS011;42800;53.928;27.662;2022-11-15T11:30:24;18.88;;;7.57;;
56911;SDS011;42800;53.928;27.662;2022-11-15T11:33:10;14.25;;;8.13;;
56911;SDS011;42800;53.928;27.662;2022-11-15T11:35:45;19.80;;;8.25;;
56911;SDS011;42800;53.928;27.662;2022-11-15T11:38:19;12.05;;;6.57;;
56911;SDS011;42800;53.928;27.662;2022-11-15T11:41:00;17.55;;;7.70;;
56911;SDS011;42800;53.928;27.662;2022-11-15T11:43:36;17.27;;;9.52;;
56911;SDS011;42800;53.928;27.662;2022-11-15T11:46:22;16.67;;;8.40;;
56911;SDS011;42800;53.928;27.662;2022-11-15T11:49:09;12.98;;;7.93;;
56911;SDS011;42800;53.928;27.662;2022-11-15T11:51:39;10.40;;;7.43;;
56911;SDS011;42800;53.928;27.662;2022-11-15T11:54:10;15.85;;;8.80;;
56911;SDS011;42800;53.928;27.662;2022-11-15T11:56:41;12.60;;;7.63;;
56911;SDS011;42800;53.928;27.662;2022-11-15T11:59:11;15.82;;;8.90;;
56911;SDS011;42800;53.928;27.662;2022-11-15T12:01:43;16.45;;;8.25;;
56911;SDS011;42800;53.928;27.662;2022-11-15T12:04:13;14.15;;;7.85;;
56911;SDS011;42800;53.928;27.662;2022-11-15T12:06:46;15.85;;;7.38;;
56911;SDS011;42800;53.928;27.662;2022-11-15T12:09:17;15.98;;;7.88;;
56911;SDS011;42800;53.928;27.662;2022-11-15T12:11:49;13.82;;;7.88;;
56911;SDS011;42800;53.928;27.662;2022-11-15T12:14:24;17.58;;;8.43;;
56911;SDS011;42800;53.928;27.662;2022-11-15T12:16:54;13.73;;;7.28;;
56911;SDS011;42800;53.928;27.662;2022-11-15T12:19:21;14.07;;;7.55;;
56911;SDS011;42800;53.928;27.662;2022-11-15T12:21:49;17.17;;;6.70;;
56911;SDS011;42800;53.928;27.662;2022-11-15T12:24:20;10.48;;;6.30;;
56911;SDS011;42800;53.928;27.662;2022-11-15T12:26:56;10.45;;;6.45;;
56911;SDS011;42800;53.928;27.662;2022-11-15T12:29:27;13.32;;;6.97;;
56911;SDS011;42800;53.928;27.662;2022-11-15T12:31:59;15.85;;;8.05;;
56911;SDS011;42800;53.928;27.662;2022-11-15T12:34:39;10.77;;;6.57;;
56911;SDS011;42800;53.928;27.662;2022-11-15T12:46:10;11.55;;;5.90;;
56911;SDS011;42800;53.928;27.662;2022-11-15T12:48:46;10.32;;;6.03;;
56911;SDS011;42800;53.928;27.662;2022-11-15T12:51:24;11.48;;;6.20;;
56911;SDS011;42800;53.928;27.662;2022-11-15T12:57:27;10.05;;;6.07;;
56911;SDS011;42800;53.928;27.662;2022-11-15T12:59:56;13.20;;;6.28;;
56911;SDS011;42800;53.928;27.662;2022-11-15T13:02:27;8.73;;;5.65;;
56911;SDS011;42800;53.928;27.662;2022-11-15T13:05:24;14.90;;;6.20;;
56911;SDS011;42800;53.928;27.662;2022-11-15T13:08:01;9.52;;;5.53;;
56911;SDS011;42800;53.928;27.662;2022-11-15T13:10:31;11.25;;;5.47;;
56911;SDS011;42800;53.928;27.662;2022-11-15T13:12:58;7.97;;;5.25;;
56911;SDS011;42800;53.928;27.662;2022-11-15T13:24:13;12.10;;;5.22;;
56911;SDS011;42800;53.928;27.662;2022-11-15T13:26:42;8.75;;;4.88;;
56911;SDS011;42800;53.928;27.662;2022-11-15T13:29:15;11.52;;;4.80;;
56911;SDS011;42800;53.928;27.662;2022-11-15T13:31:43;13.88;;;5.05;;
56911;SDS011;42800;53.928;27.662;2022-11-15T13:34:24;11.07;;;5.30;;
56911;SDS011;42800;53.928;27.662;2022-11-15T13:36:53;12.02;;;5.68;;
56911;SDS011;42800;53.928;27.662;2022-11-15T13:39:26;10.50;;;6.32;;
56911;SDS011;42800;53.928;27.662;2022-11-15T13:41:54;20.17;;;10.30;;
56911;SDS011;42800;53.928;27.662;2022-11-15T13:44:20;13.02;;;5.10;;
56911;SDS011;42800;53.928;27.662;2022-11-15T13:46:48;10.70;;;5.30;;
56911;SDS011;42800;53.928;27.662;2022-11-15T13:49:28;12.85;;;5.10;;
56911;SDS011;42800;53.928;27.662;2022-11-15T13:51:55;7.65;;;4.88;;
56911;SDS011;42800;53.928;27.662;2022-11-15T13:54:23;10.05;;;4.75;;
56911;SDS011;42800;53.928;27.662;2022-11-15T13:56:54;13.18;;;4.93;;
56911;SDS011;42800;53.928;27.662;2022-11-15T13:59:25;11.68;;;5.50;;
56911;SDS011;42800;53.928;27.662;2022-11-15T14:01:53;8.25;;;4.57;;
56911;SDS011;42800;53.928;27.662;2022-11-15T14:04:21;10.38;;;5.30;;
56911;SDS011;42800;53.928;27.662;2022-11-15T14:06:50;7.72;;;5.00;;
56911;SDS011;42800;53.928;27.662;2022-11-15T14:09:32;9.32;;;4.97;;
56911;SDS011;42800;53.928;27.662;2022-11-15T14:12:01;11.18;;;4.80;;
56911;SDS011;42800;53.928;27.662;2022-11-15T14:14:46;11.82;;;5.55;;
56911;SDS011;42800;53.928;27.662;2022-11-15T14:17:18;11.65;;;4.97;;
56911;SDS011;42800;53.928;27.662;2022-11-15T14:19:48;10.88;;;4.72;;
56911;SDS011;42800;53.928;27.662;2022-11-15T14:22:16;12.85;;;5.20;;
56911;SDS011;42800;53.928;27.662;2022-11-15T14:24:47;14.38;;;6.53;;
56911;SDS011;42800;53.928;27.662;2022-11-15T14:27:32;11.68;;;5.90;;
56911;SDS011;42800;53.928;27.662;2022-11-15T14:29:59;10.63;;;5.75;;
56911;SDS011;42800;53.928;27.662;2022-11-15T14:32:26;10.10;;;5.55;;
56911;SDS011;42800;53.928;27.662;2022-11-15T14:34:54;17.88;;;6.32;;
56911;SDS011;42800;53.928;27.662;2022-11-15T14:37:22;9.40;;;5.45;;
56911;SDS011;42800;53.928;27.662;2022-11-15T14:39:50;11.30;;;5.13;;
56911;SDS011;42800;53.928;27.662;2022-11-15T14:42:17;12.10;;;5.40;;
56911;SDS011;42800;53.928;27.662;2022-11-15T14:44:45;9.43;;;5.05;;
56911;SDS011;42800;53.928;27.662;2022-11-15T14:47:11;9.00;;;5.22;;
56911;SDS011;42800;53.928;27.662;2022-11-15T14:49:38;6.68;;;4.45;;
56911;SDS011;42800;53.928;27.662;2022-11-15T14:52:07;8.10;;;5.25;;
56911;SDS011;42800;53.928;27.662;2022-11-15T14:54:46;7.65;;;4.72;;
56911;SDS011;42800;53.928;27.662;2022-11-15T14:57:13;8.52;;;5.10;;
56911;SDS011;42800;53.928;27.662;2022-11-15T14:59:40;16.35;;;7.72;;
56911;SDS011;42800;53.928;27.662;2022-11-15T15:02:09;11.52;;;5.75;;
56911;SDS011;42800;53.928;27.662;2022-11-15T15:04:40;10.63;;;5.82;;
56911;SDS011;42800;53.928;27.662;2022-11-15T15:07:06;7.82;;;5.03;;